sensor_id;sensor_type;location;lat;lon;timestamp;P1;durP1;ratioP1;P2;durP2;ratioP2
34982;SDS011;21187;50.976;13.720;2023-02-15T00:02:01;113.55;;;30.08;;
34982;SDS011;21187;50.976;13.720;2023-02-15T00:07:03;93.72;;;29.35;;
34982;SDS011;21187;50.976;13.720;2023-02-15T00:12:05;47.90;;;18.60;;
34982;SDS011;21187;50.976;13.720;2023-02-15T00:17:06;41.92;;;15.15;;
34982;SDS011;21187;50.976;13.720;2023-02-15T00:22:08;30.40;;;11.85;;
34982;SDS011;21187;50.976;13.720;2023-02-15T00:27:10;30.20;;;11.60;;
34982;SDS011;21187;50.976;13.720;2023-02-15T00:32:13;29.60;;;12.43;;
34982;SDS011;21187;50.976;13.720;2023-02-15T00:37:15;34.38;;;12.90;;
34982;SDS011;21187;50.976;13.720;2023-02-15T00:42:20;29.67;;;11.18;;
34982;SDS011;21187;50.976;13.720;2023-02-15T00:47:22;29.83;;;11.60;;
34982;SDS011;21187;50.976;13.720;2023-02-15T00:52:26;29.85;;;11.45;;
34982;SDS011;21187;50.976;13.720;2023-02-15T00:57:29;30.17;;;11.48;;
34982;SDS011;21187;50.976;13.720;2023-02-15T01:02:31;29.73;;;11.57;;
34982;SDS011;21187;50.976;13.720;2023-02-15T01:07:35;30.75;;;11.43;;
34982;SDS011;21187;50.976;13.720;2023-02-15T01:12:37;26.20;;;11.20;;
34982;SDS011;21187;50.976;13.720;2023-02-15T01:17:40;29.40;;;10.95;;
34982;SDS011;21187;50.976;13.720;2023-02-15T01:22:42;27.58;;;10.98;;
34982;SDS011;21187;50.976;13.720;2023-02-15T01:27:45;27.83;;;10.55;;
34982;SDS011;21187;50.976;13.720;2023-02-15T01:32:47;23.73;;;9.93;;
34982;SDS011;21187;50.976;13.720;2023-02-15T01:37:48;22.48;;;9.23;;
34982;SDS011;21187;50.976;13.720;2023-02-15T01:42:52;21.98;;;8.93;;
34982;SDS011;21187;50.976;13.720;2023-02-15T01:53:05;24.10;;;9.60;;
34982;SDS011;21187;50.976;13.720;2023-02-15T01:58:14;26.05;;;10.15;;
34982;SDS011;21187;50.976;13.720;2023-02-15T02:03:17;30.42;;;11.73;;
34982;SDS011;21187;50.976;13.720;2023-02-15T02:08:25;31.13;;;11.98;;
34982;SDS011;21187;50.976;13.720;2023-02-15T02:13:27;26.40;;;10.95;;
34982;SDS011;21187;50.976;13.720;2023-02-15T02:18:41;29.25;;;12.60;;
34982;SDS011;21187;50.976;13.720;2023-02-15T02:44:49;20.02;;;8.55;;
34982;SDS011;21187;50.976;13.720;2023-02-15T02:50:00;22.27;;;9.25;;
34982;SDS011;21187;50.976;13.720;2023-02-15T03:00:26;18.80;;;7.38;;
34982;SDS011;21187;50.976;13.720;2023-02-15T03:05:33;20.65;;;7.03;;
34982;SDS011;21187;50.976;13.720;2023-02-15T03:10:37;15.45;;;6.53;;
34982;SDS011;21187;50.976;13.720;2023-02-15T03:15:42;22.40;;;7.68;;
34982;SDS011;21187;50.976;13.720;2023-02-15T03:21:05;24.55;;;8.25;;
34982;SDS011;21187;50.976;13.720;2023-02-15T03:26:10;23.85;;;8.02;;
34982;SDS011;21187;50.976;13.720;2023-02-15T03:31:13;21.52;;;7.68;;
34982;SDS011;21187;50.976;13.720;2023-02-15T03:41:36;25.23;;;9.10;;
34982;SDS011;21187;50.976;13.720;2023-02-15T03:46:47;25.95;;;10.05;;
34982;SDS011;21187;50.976;13.720;2023-02-15T03:51:55;31.17;;;10.43;;
34982;SDS011;21187;50.976;13.720;2023-02-15T03:56:59;27.90;;;10.02;;
34982;SDS011;21187;50.976;13.720;2023-02-15T04:02:21;33.58;;;10.63;;
34982;SDS011;21187;50.976;13.720;2023-02-15T04:07:31;28.42;;;10.68;;
34982;SDS011;21187;50.976;13.720;2023-02-15T04:12:33;23.50;;;9.40;;
34982;SDS011;21187;50.976;13.720;2023-02-15T04:17:36;28.42;;;10.63;;
34982;SDS011;21187;50.976;13.720;2023-02-15T04:22:39;26.55;;;10.23;;
34982;SDS011;21187;50.976;13.720;2023-02-15T04:27:59;29.08;;;10.93;;
34982;SDS011;21187;50.976;13.720;2023-02-15T04:33:01;28.83;;;10.57;;
34982;SDS011;21187;50.976;13.720;2023-02-15T04:38:03;29.33;;;10.52;;
34982;SDS011;21187;50.976;13.720;2023-02-15T04:43:05;30.02;;;11.20;;
34982;SDS011;21187;50.976;13.720;2023-02-15T04:48:07;39.20;;;12.10;;
34982;SDS011;21187;50.976;13.720;2023-02-15T04:53:08;27.13;;;9.93;;
34982;SDS011;21187;50.976;13.720;2023-02-15T04:58:11;29.65;;;10.38;;
34982;SDS011;21187;50.976;13.720;2023-02-15T05:03:13;25.73;;;9.20;;
34982;SDS011;21187;50.976;13.720;2023-02-15T05:08:14;27.85;;;9.82;;
34982;SDS011;21187;50.976;13.720;2023-02-15T05:13:16;28.67;;;9.68;;
34982;SDS011;21187;50.976;13.720;2023-02-15T05:18:19;22.10;;;8.43;;
34982;SDS011;21187;50.976;13.720;2023-02-15T05:23:22;22.77;;;7.55;;
34982;SDS011;21187;50.976;13.720;2023-02-15T05:28:25;26.73;;;9.00;;
34982;SDS011;21187;50.976;13.720;2023-02-15T05:33:28;18.35;;;7.93;;
34982;SDS011;21187;50.976;13.720;2023-02-15T05:38:30;21.20;;;8.35;;
34982;SDS011;21187;50.976;13.720;2023-02-15T05:43:32;22.58;;;9.23;;
34982;SDS011;21187;50.976;13.720;2023-02-15T05:48:34;21.65;;;8.52;;
34982;SDS011;21187;50.976;13.720;2023-02-15T05:53:37;20.83;;;8.18;;
34982;SDS011;21187;50.976;13.720;2023-02-15T05:58:41;24.13;;;7.60;;
34982;SDS011;21187;50.976;13.720;2023-02-15T06:03:44;16.27;;;6.75;;
34982;SDS011;21187;50.976;13.720;2023-02-15T06:08:47;16.95;;;7.20;;
34982;SDS011;21187;50.976;13.720;2023-02-15T06:13:49;14.73;;;5.97;;
34982;SDS011;21187;50.976;13.720;2023-02-15T06:18:51;18.35;;;6.65;;
34982;SDS011;21187;50.976;13.720;2023-02-15T06:23:54;12.18;;;5.85;;
34982;SDS011;21187;50.976;13.720;2023-02-15T06:28:56;15.82;;;6.25;;
34982;SDS011;21187;50.976;13.720;2023-02-15T06:33:57;11.70;;;5.45;;
34982;SDS011;21187;50.976;13.720;2023-02-15T06:39:02;20.10;;;6.40;;
34982;SDS011;21187;50.976;13.720;2023-02-15T06:44:05;15.75;;;6.20;;
34982;SDS011;21187;50.976;13.720;2023-02-15T06:49:07;19.73;;;6.60;;
34982;SDS011;21187;50.976;13.720;2023-02-15T06:54:09;25.73;;;7.65;;
34982;SDS011;21187;50.976;13.720;2023-02-15T06:59:11;17.73;;;6.90;;
34982;SDS011;21187;50.976;13.720;2023-02-15T07:04:13;20.00;;;7.45;;
34982;SDS011;21187;50.976;13.720;2023-02-15T07:09:14;27.30;;;7.80;;
34982;SDS011;21187;50.976;13.720;2023-02-15T07:14:17;22.30;;;8.45;;
34982;SDS011;21187;50.976;13.720;2023-02-15T07:19:19;22.70;;;8.63;;
34982;SDS011;21187;50.976;13.720;2023-02-15T07:24:21;19.50;;;7.07;;
34982;SDS011;21187;50.976;13.720;2023-02-15T07:29:23;14.95;;;5.47;;
34982;SDS011;21187;50.976;13.720;2023-02-15T07:34:25;13.60;;;4.72;;
34982;SDS011;21187;50.976;13.720;2023-02-15T07:39:27;12.50;;;5.47;;
34982;SDS011;21187;50.976;13.720;2023-02-15T07:44:30;14.70;;;6.50;;
34982;SDS011;21187;50.976;13.720;2023-02-15T07:49:32;14.82;;;6.13;;
34982;SDS011;21187;50.976;13.720;2023-02-15T07:54:35;16.52;;;6.15;;
34982;SDS011;21187;50.976;13.720;2023-02-15T07:59:37;16.83;;;7.22;;
34982;SDS011;21187;50.976;13.720;2023-02-15T08:04:39;15.48;;;6.78;;
34982;SDS011;21187;50.976;13.720;2023-02-15T08:09:41;19.00;;;6.80;;
34982;SDS011;21187;50.976;13.720;2023-02-15T08:14:43;19.42;;;7.28;;
34982;SDS011;21187;50.976;13.720;2023-02-15T08:19:45;27.23;;;8.65;;
34982;SDS011;21187;50.976;13.720;2023-02-15T08:24:48;22.80;;;9.18;;
34982;SDS011;21187;50.976;13.720;2023-02-15T08:29:49;23.60;;;7.88;;
34982;SDS011;21187;50.976;13.720;2023-02-15T08:34:51;24.77;;;8.10;;
34982;SDS011;21187;50.976;13.720;2023-02-15T08:39:54;22.85;;;9.23;;
34982;SDS011;21187;50.976;13.720;2023-02-15T08:44:55;20.38;;;7.63;;
34982;SDS011;21187;50.976;13.720;2023-02-15T08:49:57;18.63;;;7.68;;
34982;SDS011;21187;50.976;13.720;2023-02-15T08:54:59;26.60;;;9.55;;
34982;SDS011;21187;50.976;13.720;2023-02-15T09:00:01;27.30;;;9.02;;
34982;SDS011;21187;50.976;13.720;2023-02-15T09:05:06;21.90;;;8.40;;
34982;SDS011;21187;50.976;13.720;2023-02-15T09:10:08;23.85;;;9.10;;
34982;SDS011;21187;50.976;13.720;2023-02-15T09:15:11;25.17;;;8.60;;
34982;SDS011;21187;50.976;13.720;2023-02-15T09:20:13;22.88;;;9.73;;
34982;SDS011;21187;50.976;13.720;2023-02-15T09:25:14;17.90;;;7.30;;
34982;SDS011;21187;50.976;13.720;2023-02-15T09:30:16;26.98;;;9.75;;
34982;SDS011;21187;50.976;13.720;2023-02-15T09:35:19;25.50;;;9.15;;
34982;SDS011;21187;50.976;13.720;2023-02-15T09:40:20;24.30;;;8.43;;
34982;SDS011;21187;50.976;13.720;2023-02-15T09:45:26;21.42;;;8.45;;
34982;SDS011;21187;50.976;13.720;2023-02-15T10:28:20;20.08;;;8.35;;
34982;SDS011;21187;50.976;13.720;2023-02-15T10:33:41;18.90;;;7.80;;
34982;SDS011;21187;50.976;13.720;2023-02-15T10:49:01;19.38;;;8.07;;
34982;SDS011;21187;50.976;13.720;2023-02-15T10:59:31;22.15;;;8.75;;
34982;SDS011;21187;50.976;13.720;2023-02-15T11:05:00;20.35;;;8.55;;
34982;SDS011;21187;50.976;13.720;2023-02-15T11:15:55;22.27;;;9.15;;
34982;SDS011;21187;50.976;13.720;2023-02-15T11:26:08;18.10;;;8.07;;
34982;SDS011;21187;50.976;13.720;2023-02-15T11:31:26;20.90;;;8.15;;
34982;SDS011;21187;50.976;13.720;2023-02-15T11:36:43;22.25;;;8.57;;
34982;SDS011;21187;50.976;13.720;2023-02-15T11:41:50;18.02;;;7.60;;
34982;SDS011;21187;50.976;13.720;2023-02-15T11:46:55;17.70;;;7.70;;
34982;SDS011;21187;50.976;13.720;2023-02-15T11:51:58;15.75;;;7.18;;
34982;SDS011;21187;50.976;13.720;2023-02-15T12:02:18;17.30;;;7.07;;
34982;SDS011;21187;50.976;13.720;2023-02-15T12:07:34;16.65;;;7.22;;
34982;SDS011;21187;50.976;13.720;2023-02-15T12:12:39;18.85;;;8.48;;
34982;SDS011;21187;50.976;13.720;2023-02-15T12:17:48;16.77;;;7.25;;
34982;SDS011;21187;50.976;13.720;2023-02-15T12:22:59;18.08;;;7.28;;
34982;SDS011;21187;50.976;13.720;2023-02-15T12:28:05;16.65;;;6.95;;
34982;SDS011;21187;50.976;13.720;2023-02-15T12:38:25;14.02;;;6.47;;
34982;SDS011;21187;50.976;13.720;2023-02-15T12:43:33;17.88;;;7.53;;
34982;SDS011;21187;50.976;13.720;2023-02-15T12:48:36;17.05;;;7.65;;
34982;SDS011;21187;50.976;13.720;2023-02-15T12:53:41;18.00;;;6.95;;
34982;SDS011;21187;50.976;13.720;2023-02-15T12:58:45;17.65;;;8.07;;
34982;SDS011;21187;50.976;13.720;2023-02-15T13:04:00;19.15;;;7.88;;
34982;SDS011;21187;50.976;13.720;2023-02-15T13:09:06;20.30;;;7.47;;
34982;SDS011;21187;50.976;13.720;2023-02-15T13:14:42;17.73;;;7.78;;
34982;SDS011;21187;50.976;13.720;2023-02-15T13:19:50;23.23;;;9.10;;
34982;SDS011;21187;50.976;13.720;2023-02-15T13:24:57;23.13;;;9.75;;
34982;SDS011;21187;50.976;13.720;2023-02-15T13:30:04;20.08;;;8.82;;
34982;SDS011;21187;50.976;13.720;2023-02-15T13:35:20;23.10;;;9.43;;
34982;SDS011;21187;50.976;13.720;2023-02-15T13:40:24;19.58;;;8.73;;
34982;SDS011;21187;50.976;13.720;2023-02-15T13:56:28;21.80;;;8.73;;
34982;SDS011;21187;50.976;13.720;2023-02-15T14:22:29;21.35;;;9.73;;
34982;SDS011;21187;50.976;13.720;2023-02-15T14:33:07;20.48;;;9.98;;
34982;SDS011;21187;50.976;13.720;2023-02-15T14:43:58;21.80;;;10.07;;
34982;SDS011;21187;50.976;13.720;2023-02-15T14:49:25;25.38;;;11.77;;
34982;SDS011;21187;50.976;13.720;2023-02-15T15:04:55;36.72;;;14.48;;
34982;SDS011;21187;50.976;13.720;2023-02-15T15:25:44;41.30;;;17.30;;
34982;SDS011;21187;50.976;13.720;2023-02-15T15:30:49;34.15;;;14.57;;
34982;SDS011;21187;50.976;13.720;2023-02-15T15:52:31;34.80;;;14.45;;
34982;SDS011;21187;50.976;13.720;2023-02-15T15:57:41;39.78;;;15.30;;
34982;SDS011;21187;50.976;13.720;2023-02-15T16:02:52;36.42;;;14.90;;
34982;SDS011;21187;50.976;13.720;2023-02-15T16:07:55;39.15;;;14.95;;
34982;SDS011;21187;50.976;13.720;2023-02-15T16:12:57;36.38;;;13.30;;
34982;SDS011;21187;50.976;13.720;2023-02-15T16:18:00;41.35;;;14.90;;
34982;SDS011;21187;50.976;13.720;2023-02-15T16:28:16;43.92;;;15.05;;
34982;SDS011;21187;50.976;13.720;2023-02-15T16:33:20;145.10;;;46.38;;
34982;SDS011;21187;50.976;13.720;2023-02-15T16:43:43;41.35;;;16.48;;
34982;SDS011;21187;50.976;13.720;2023-02-15T16:48:49;37.72;;;13.90;;
34982;SDS011;21187;50.976;13.720;2023-02-15T16:53:54;38.35;;;13.45;;
34982;SDS011;21187;50.976;13.720;2023-02-15T16:58:58;42.22;;;16.90;;
34982;SDS011;21187;50.976;13.720;2023-02-15T17:04:11;53.60;;;18.70;;
34982;SDS011;21187;50.976;13.720;2023-02-15T17:09:15;71.78;;;28.08;;
34982;SDS011;21187;50.976;13.720;2023-02-15T17:14:26;97.40;;;36.22;;
34982;SDS011;21187;50.976;13.720;2023-02-15T17:19:33;48.50;;;18.92;;
34982;SDS011;21187;50.976;13.720;2023-02-15T17:24:47;40.47;;;16.20;;
34982;SDS011;21187;50.976;13.720;2023-02-15T17:30:03;42.35;;;18.20;;
34982;SDS011;21187;50.976;13.720;2023-02-15T17:35:20;45.10;;;17.02;;
34982;SDS011;21187;50.976;13.720;2023-02-15T17:45:39;30.45;;;14.52;;
34982;SDS011;21187;50.976;13.720;2023-02-15T17:50:45;40.75;;;13.25;;
34982;SDS011;21187;50.976;13.720;2023-02-15T17:55:47;33.33;;;13.35;;
34982;SDS011;21187;50.976;13.720;2023-02-15T18:06:17;33.22;;;12.85;;
34982;SDS011;21187;50.976;13.720;2023-02-15T18:11:38;36.53;;;13.35;;
34982;SDS011;21187;50.976;13.720;2023-02-15T18:16:41;41.35;;;16.90;;
34982;SDS011;21187;50.976;13.720;2023-02-15T18:21:45;42.03;;;17.42;;
34982;SDS011;21187;50.976;13.720;2023-02-15T18:26:47;40.72;;;16.48;;
34982;SDS011;21187;50.976;13.720;2023-02-15T18:31:51;37.92;;;15.98;;
34982;SDS011;21187;50.976;13.720;2023-02-15T18:36:56;44.33;;;15.25;;
34982;SDS011;21187;50.976;13.720;2023-02-15T18:41:59;37.08;;;15.48;;
34982;SDS011;21187;50.976;13.720;2023-02-15T18:47:01;33.28;;;13.50;;
34982;SDS011;21187;50.976;13.720;2023-02-15T18:52:03;34.17;;;13.57;;
34982;SDS011;21187;50.976;13.720;2023-02-15T18:57:08;41.00;;;15.23;;
34982;SDS011;21187;50.976;13.720;2023-02-15T19:02:15;38.67;;;15.07;;
34982;SDS011;21187;50.976;13.720;2023-02-15T19:07:20;33.22;;;13.73;;
34982;SDS011;21187;50.976;13.720;2023-02-15T19:12:27;106.15;;;34.70;;
34982;SDS011;21187;50.976;13.720;2023-02-15T19:17:31;42.10;;;15.63;;
34982;SDS011;21187;50.976;13.720;2023-02-15T19:22:34;43.80;;;16.10;;
34982;SDS011;21187;50.976;13.720;2023-02-15T19:27:36;41.05;;;17.95;;
34982;SDS011;21187;50.976;13.720;2023-02-15T19:32:39;49.70;;;18.08;;
34982;SDS011;21187;50.976;13.720;2023-02-15T19:37:43;53.72;;;20.08;;
34982;SDS011;21187;50.976;13.720;2023-02-15T19:42:46;47.08;;;15.95;;
34982;SDS011;21187;50.976;13.720;2023-02-15T19:47:48;38.83;;;15.18;;
34982;SDS011;21187;50.976;13.720;2023-02-15T19:52:53;46.38;;;16.77;;
34982;SDS011;21187;50.976;13.720;2023-02-15T19:57:56;45.03;;;16.63;;
34982;SDS011;21187;50.976;13.720;2023-02-15T20:02:59;39.08;;;14.77;;
34982;SDS011;21187;50.976;13.720;2023-02-15T20:08:02;49.05;;;18.50;;
34982;SDS011;21187;50.976;13.720;2023-02-15T20:13:15;37.65;;;14.57;;
34982;SDS011;21187;50.976;13.720;2023-02-15T20:18:20;50.08;;;22.10;;
34982;SDS011;21187;50.976;13.720;2023-02-15T20:23:24;44.85;;;15.98;;
34982;SDS011;21187;50.976;13.720;2023-02-15T20:28:32;36.22;;;13.90;;
34982;SDS011;21187;50.976;13.720;2023-02-15T20:33:34;48.53;;;19.10;;
34982;SDS011;21187;50.976;13.720;2023-02-15T20:38:36;36.85;;;14.20;;
34982;SDS011;21187;50.976;13.720;2023-02-15T20:43:39;44.95;;;14.52;;
34982;SDS011;21187;50.976;13.720;2023-02-15T20:48:41;36.45;;;13.77;;
34982;SDS011;21187;50.976;13.720;2023-02-15T20:53:44;44.83;;;17.23;;
34982;SDS011;21187;50.976;13.720;2023-02-15T20:58:47;38.17;;;14.13;;
34982;SDS011;21187;50.976;13.720;2023-02-15T21:03:49;39.50;;;14.95;;
34982;SDS011;21187;50.976;13.720;2023-02-15T21:08:51;32.75;;;12.35;;
34982;SDS011;21187;50.976;13.720;2023-02-15T21:13:53;39.20;;;14.02;;
34982;SDS011;21187;50.976;13.720;2023-02-15T21:18:55;36.05;;;13.52;;
34982;SDS011;21187;50.976;13.720;2023-02-15T21:23:57;45.30;;;14.60;;
34982;SDS011;21187;50.976;13.720;2023-02-15T21:28:59;41.80;;;14.75;;
34982;SDS011;21187;50.976;13.720;2023-02-15T21:34:02;46.60;;;15.25;;
34982;SDS011;21187;50.976;13.720;2023-02-15T21:39:04;40.67;;;15.60;;
34982;SDS011;21187;50.976;13.720;2023-02-15T21:44:13;41.75;;;14.77;;
34982;SDS011;21187;50.976;13.720;2023-02-15T21:49:36;42.30;;;14.77;;
34982;SDS011;21187;50.976;13.720;2023-02-15T21:54:39;41.92;;;13.90;;
34982;SDS011;21187;50.976;13.720;2023-02-15T21:59:41;41.88;;;14.27;;
34982;SDS011;21187;50.976;13.720;2023-02-15T22:04:44;35.40;;;13.73;;
34982;SDS011;21187;50.976;13.720;2023-02-15T22:09:46;38.38;;;14.50;;
34982;SDS011;21187;50.976;13.720;2023-02-15T22:14:49;38.42;;;13.20;;
34982;SDS011;21187;50.976;13.720;2023-02-15T22:19:54;36.92;;;13.57;;
34982;SDS011;21187;50.976;13.720;2023-02-15T22:24:57;35.38;;;13.52;;
34982;SDS011;21187;50.976;13.720;2023-02-15T22:29:58;39.60;;;13.48;;
34982;SDS011;21187;50.976;13.720;2023-02-15T22:35:01;39.15;;;13.52;;
34982;SDS011;21187;50.976;13.720;2023-02-15T22:40:03;34.42;;;13.05;;
34982;SDS011;21187;50.976;13.720;2023-02-15T22:45:08;34.28;;;12.27;;
34982;SDS011;21187;50.976;13.720;2023-02-15T22:50:25;34.55;;;12.77;;
34982;SDS011;21187;50.976;13.720;2023-02-15T22:55:31;32.47;;;12.75;;
34982;SDS011;21187;50.976;13.720;2023-02-15T23:00:37;41.05;;;13.40;;
34982;SDS011;21187;50.976;13.720;2023-02-15T23:05:40;32.85;;;12.57;;
34982;SDS011;21187;50.976;13.720;2023-02-15T23:10:44;42.38;;;13.18;;
34982;SDS011;21187;50.976;13.720;2023-02-15T23:15:51;36.70;;;12.50;;
34982;SDS011;21187;50.976;13.720;2023-02-15T23:26:17;34.90;;;12.70;;
34982;SDS011;21187;50.976;13.720;2023-02-15T23:31:32;39.03;;;13.63;;
34982;SDS011;21187;50.976;13.720;2023-02-15T23:36:37;36.55;;;12.57;;
34982;SDS011;21187;50.976;13.720;2023-02-15T23:41:40;39.50;;;12.55;;
34982;SDS011;21187;50.976;13.720;2023-02-15T23:46:42;40.17;;;12.30;;
34982;SDS011;21187;50.976;13.720;2023-02-15T23:51:48;36.83;;;13.80;;
34982;SDS011;21187;50.976;13.720;2023-02-15T23:56:56;36.53;;;12.45;;
